sensor_id;sensor_type;location;lat;lon;timestamp;P1;durP1;ratioP1;P2;durP2;ratioP2
21458;SDS011;10891;49.350;19.386;2023-04-06T00:00:32;66.50;;;30.90;;
21458;SDS011;10891;49.350;19.386;2023-04-06T00:02:59;93.80;;;36.27;;
21458;SDS011;10891;49.350;19.386;2023-04-06T00:05:26;73.00;;;33.93;;
21458;SDS011;10891;49.350;19.386;2023-04-06T00:07:55;73.33;;;31.93;;
21458;SDS011;10891;49.350;19.386;2023-04-06T00:10:23;63.37;;;29.33;;
21458;SDS011;10891;49.350;19.386;2023-04-06T00:12:50;62.97;;;28.23;;
21458;SDS011;10891;49.350;19.386;2023-04-06T00:15:18;63.43;;;28.10;;
21458;SDS011;10891;49.350;19.386;2023-04-06T00:17:46;54.57;;;26.23;;
21458;SDS011;10891;49.350;19.386;2023-04-06T00:20:13;60.90;;;27.33;;
21458;SDS011;10891;49.350;19.386;2023-04-06T00:22:39;70.27;;;29.80;;
21458;SDS011;10891;49.350;19.386;2023-04-06T00:25:07;69.20;;;28.97;;
21458;SDS011;10891;49.350;19.386;2023-04-06T00:27:35;64.10;;;28.67;;
21458;SDS011;10891;49.350;19.386;2023-04-06T00:30:02;77.57;;;33.03;;
21458;SDS011;10891;49.350;19.386;2023-04-06T00:32:31;68.00;;;30.97;;
21458;SDS011;10891;49.350;19.386;2023-04-06T00:34:58;75.50;;;31.10;;
21458;SDS011;10891;49.350;19.386;2023-04-06T00:37:25;77.20;;;33.07;;
21458;SDS011;10891;49.350;19.386;2023-04-06T00:39:52;75.33;;;31.80;;
21458;SDS011;10891;49.350;19.386;2023-04-06T00:42:19;65.50;;;30.17;;
21458;SDS011;10891;49.350;19.386;2023-04-06T00:44:50;61.73;;;29.87;;
21458;SDS011;10891;49.350;19.386;2023-04-06T00:47:18;62.00;;;29.97;;
21458;SDS011;10891;49.350;19.386;2023-04-06T00:49:46;66.43;;;28.13;;
21458;SDS011;10891;49.350;19.386;2023-04-06T00:52:13;63.83;;;26.00;;
21458;SDS011;10891;49.350;19.386;2023-04-06T00:54:41;63.53;;;27.87;;
21458;SDS011;10891;49.350;19.386;2023-04-06T00:57:08;60.07;;;27.20;;
21458;SDS011;10891;49.350;19.386;2023-04-06T00:59:35;64.70;;;29.13;;
21458;SDS011;10891;49.350;19.386;2023-04-06T01:02:02;65.90;;;30.67;;
21458;SDS011;10891;49.350;19.386;2023-04-06T01:04:29;59.67;;;26.93;;
21458;SDS011;10891;49.350;19.386;2023-04-06T01:06:58;58.30;;;27.13;;
21458;SDS011;10891;49.350;19.386;2023-04-06T01:09:27;69.23;;;31.03;;
21458;SDS011;10891;49.350;19.386;2023-04-06T01:11:54;129.23;;;41.77;;
21458;SDS011;10891;49.350;19.386;2023-04-06T01:14:21;62.37;;;28.73;;
21458;SDS011;10891;49.350;19.386;2023-04-06T01:16:49;55.67;;;25.20;;
21458;SDS011;10891;49.350;19.386;2023-04-06T01:19:16;71.80;;;30.57;;
21458;SDS011;10891;49.350;19.386;2023-04-06T01:21:43;64.07;;;29.13;;
21458;SDS011;10891;49.350;19.386;2023-04-06T01:24:11;76.10;;;33.97;;
21458;SDS011;10891;49.350;19.386;2023-04-06T01:26:38;85.97;;;35.83;;
21458;SDS011;10891;49.350;19.386;2023-04-06T01:29:06;109.33;;;40.40;;
21458;SDS011;10891;49.350;19.386;2023-04-06T01:31:33;87.80;;;38.40;;
21458;SDS011;10891;49.350;19.386;2023-04-06T01:34:00;82.77;;;37.17;;
21458;SDS011;10891;49.350;19.386;2023-04-06T01:36:27;78.00;;;33.33;;
21458;SDS011;10891;49.350;19.386;2023-04-06T01:38:54;68.50;;;28.10;;
21458;SDS011;10891;49.350;19.386;2023-04-06T01:41:23;71.37;;;29.17;;
21458;SDS011;10891;49.350;19.386;2023-04-06T01:43:50;57.97;;;27.53;;
21458;SDS011;10891;49.350;19.386;2023-04-06T01:46:19;59.27;;;24.37;;
21458;SDS011;10891;49.350;19.386;2023-04-06T01:48:46;85.13;;;29.23;;
21458;SDS011;10891;49.350;19.386;2023-04-06T01:51:14;66.03;;;28.13;;
21458;SDS011;10891;49.350;19.386;2023-04-06T01:53:41;80.10;;;36.40;;
21458;SDS011;10891;49.350;19.386;2023-04-06T01:56:08;65.40;;;29.03;;
21458;SDS011;10891;49.350;19.386;2023-04-06T01:58:36;75.70;;;34.33;;
21458;SDS011;10891;49.350;19.386;2023-04-06T02:01:03;69.40;;;31.47;;
21458;SDS011;10891;49.350;19.386;2023-04-06T02:03:30;70.10;;;30.63;;
21458;SDS011;10891;49.350;19.386;2023-04-06T02:05:57;65.30;;;27.37;;
21458;SDS011;10891;49.350;19.386;2023-04-06T02:08:24;50.47;;;24.10;;
21458;SDS011;10891;49.350;19.386;2023-04-06T02:10:51;53.13;;;22.40;;
21458;SDS011;10891;49.350;19.386;2023-04-06T02:13:18;47.57;;;21.77;;
21458;SDS011;10891;49.350;19.386;2023-04-06T02:15:46;46.90;;;24.60;;
21458;SDS011;10891;49.350;19.386;2023-04-06T02:18:13;55.97;;;25.60;;
21458;SDS011;10891;49.350;19.386;2023-04-06T02:20:42;49.70;;;25.07;;
21458;SDS011;10891;49.350;19.386;2023-04-06T02:23:09;54.93;;;29.03;;
21458;SDS011;10891;49.350;19.386;2023-04-06T02:25:36;53.73;;;25.63;;
21458;SDS011;10891;49.350;19.386;2023-04-06T02:28:03;42.67;;;21.27;;
21458;SDS011;10891;49.350;19.386;2023-04-06T02:30:30;46.30;;;24.30;;
21458;SDS011;10891;49.350;19.386;2023-04-06T02:32:59;56.27;;;28.03;;
21458;SDS011;10891;49.350;19.386;2023-04-06T02:35:27;48.97;;;24.17;;
21458;SDS011;10891;49.350;19.386;2023-04-06T02:37:54;51.13;;;23.30;;
21458;SDS011;10891;49.350;19.386;2023-04-06T02:40:21;50.00;;;22.40;;
21458;SDS011;10891;49.350;19.386;2023-04-06T02:42:48;48.47;;;21.70;;
21458;SDS011;10891;49.350;19.386;2023-04-06T02:45:15;49.47;;;21.63;;
21458;SDS011;10891;49.350;19.386;2023-04-06T02:47:42;44.13;;;20.83;;
21458;SDS011;10891;49.350;19.386;2023-04-06T02:50:12;44.63;;;21.77;;
21458;SDS011;10891;49.350;19.386;2023-04-06T02:52:39;44.07;;;22.83;;
21458;SDS011;10891;49.350;19.386;2023-04-06T02:55:07;55.93;;;23.47;;
21458;SDS011;10891;49.350;19.386;2023-04-06T02:57:34;53.37;;;22.93;;
21458;SDS011;10891;49.350;19.386;2023-04-06T03:00:01;53.03;;;22.30;;
21458;SDS011;10891;49.350;19.386;2023-04-06T03:02:28;70.80;;;29.37;;
21458;SDS011;10891;49.350;19.386;2023-04-06T03:04:55;73.30;;;31.07;;
21458;SDS011;10891;49.350;19.386;2023-04-06T03:07:24;58.03;;;28.10;;
21458;SDS011;10891;49.350;19.386;2023-04-06T03:09:51;51.40;;;25.20;;
21458;SDS011;10891;49.350;19.386;2023-04-06T03:12:18;54.77;;;24.43;;
21458;SDS011;10891;49.350;19.386;2023-04-06T03:14:44;53.03;;;24.77;;
21458;SDS011;10891;49.350;19.386;2023-04-06T03:17:11;55.87;;;23.13;;
21458;SDS011;10891;49.350;19.386;2023-04-06T03:19:38;51.73;;;24.07;;
21458;SDS011;10891;49.350;19.386;2023-04-06T03:22:05;55.83;;;23.30;;
21458;SDS011;10891;49.350;19.386;2023-04-06T03:24:34;44.17;;;20.70;;
21458;SDS011;10891;49.350;19.386;2023-04-06T03:27:01;54.27;;;22.67;;
21458;SDS011;10891;49.350;19.386;2023-04-06T03:29:28;59.80;;;23.30;;
21458;SDS011;10891;49.350;19.386;2023-04-06T03:31:55;187.73;;;59.50;;
21458;SDS011;10891;49.350;19.386;2023-04-06T03:34:22;248.83;;;77.73;;
21458;SDS011;10891;49.350;19.386;2023-04-06T03:36:48;183.60;;;61.13;;
21458;SDS011;10891;49.350;19.386;2023-04-06T03:39:15;151.20;;;50.17;;
21458;SDS011;10891;49.350;19.386;2023-04-06T03:41:44;125.93;;;44.63;;
21458;SDS011;10891;49.350;19.386;2023-04-06T03:44:11;112.47;;;38.03;;
21458;SDS011;10891;49.350;19.386;2023-04-06T03:46:38;88.10;;;32.33;;
21458;SDS011;10891;49.350;19.386;2023-04-06T03:49:05;74.23;;;27.63;;
21458;SDS011;10891;49.350;19.386;2023-04-06T03:51:32;94.77;;;33.23;;
21458;SDS011;10891;49.350;19.386;2023-04-06T03:53:59;79.37;;;30.00;;
21458;SDS011;10891;49.350;19.386;2023-04-06T03:56:26;88.87;;;33.17;;
21458;SDS011;10891;49.350;19.386;2023-04-06T03:58:54;81.53;;;31.97;;
21458;SDS011;10891;49.350;19.386;2023-04-06T04:01:21;170.53;;;51.07;;
21458;SDS011;10891;49.350;19.386;2023-04-06T04:03:48;126.73;;;45.00;;
21458;SDS011;10891;49.350;19.386;2023-04-06T04:06:16;175.97;;;53.40;;
21458;SDS011;10891;49.350;19.386;2023-04-06T04:08:43;218.67;;;63.03;;
21458;SDS011;10891;49.350;19.386;2023-04-06T04:11:10;306.77;;;76.43;;
21458;SDS011;10891;49.350;19.386;2023-04-06T04:13:37;203.03;;;51.83;;
21458;SDS011;10891;49.350;19.386;2023-04-06T04:16:05;93.67;;;31.60;;
21458;SDS011;10891;49.350;19.386;2023-04-06T04:18:32;149.20;;;43.73;;
21458;SDS011;10891;49.350;19.386;2023-04-06T04:20:59;104.47;;;32.43;;
21458;SDS011;10891;49.350;19.386;2023-04-06T04:23:26;98.73;;;31.27;;
21458;SDS011;10891;49.350;19.386;2023-04-06T04:25:53;149.13;;;43.43;;
21458;SDS011;10891;49.350;19.386;2023-04-06T04:28:20;224.43;;;58.67;;
21458;SDS011;10891;49.350;19.386;2023-04-06T04:30:47;158.67;;;46.30;;
21458;SDS011;10891;49.350;19.386;2023-04-06T04:33:16;194.50;;;56.63;;
21458;SDS011;10891;49.350;19.386;2023-04-06T04:35:43;240.47;;;66.57;;
21458;SDS011;10891;49.350;19.386;2023-04-06T04:38:10;152.03;;;47.03;;
21458;SDS011;10891;49.350;19.386;2023-04-06T04:40:37;113.57;;;37.73;;
21458;SDS011;10891;49.350;19.386;2023-04-06T04:43:04;101.40;;;36.77;;
21458;SDS011;10891;49.350;19.386;2023-04-06T04:45:31;96.23;;;33.30;;
21458;SDS011;10891;49.350;19.386;2023-04-06T04:47:58;85.63;;;31.77;;
21458;SDS011;10891;49.350;19.386;2023-04-06T04:50:26;370.10;;;108.83;;
21458;SDS011;10891;49.350;19.386;2023-04-06T04:52:53;143.80;;;45.43;;
21458;SDS011;10891;49.350;19.386;2023-04-06T04:55:21;85.90;;;33.70;;
21458;SDS011;10891;49.350;19.386;2023-04-06T04:57:48;130.30;;;44.13;;
21458;SDS011;10891;49.350;19.386;2023-04-06T05:00:15;167.20;;;52.23;;
21458;SDS011;10891;49.350;19.386;2023-04-06T05:02:43;78.33;;;31.43;;
21458;SDS011;10891;49.350;19.386;2023-04-06T05:05:10;97.83;;;35.17;;
21458;SDS011;10891;49.350;19.386;2023-04-06T05:07:39;120.47;;;46.97;;
21458;SDS011;10891;49.350;19.386;2023-04-06T05:10:06;144.70;;;48.70;;
21458;SDS011;10891;49.350;19.386;2023-04-06T05:12:34;125.63;;;43.47;;
21458;SDS011;10891;49.350;19.386;2023-04-06T05:15:01;115.93;;;42.47;;
21458;SDS011;10891;49.350;19.386;2023-04-06T05:17:29;111.80;;;41.73;;
21458;SDS011;10891;49.350;19.386;2023-04-06T05:19:57;91.38;;;34.67;;
21458;SDS011;10891;49.350;19.386;2023-04-06T05:22:24;101.20;;;37.77;;
21458;SDS011;10891;49.350;19.386;2023-04-06T05:24:52;127.63;;;50.58;;
21458;SDS011;10891;49.350;19.386;2023-04-06T05:27:19;135.07;;;53.38;;
21458;SDS011;10891;49.350;19.386;2023-04-06T05:29:46;147.25;;;57.55;;
21458;SDS011;10891;49.350;19.386;2023-04-06T05:32:13;199.52;;;67.65;;
21458;SDS011;10891;49.350;19.386;2023-04-06T05:34:40;146.88;;;53.20;;
21458;SDS011;10891;49.350;19.386;2023-04-06T05:37:08;48.65;;;20.42;;
21458;SDS011;10891;49.350;19.386;2023-04-06T05:39:35;39.85;;;19.70;;
21458;SDS011;10891;49.350;19.386;2023-04-06T05:42:05;22.52;;;12.85;;
21458;SDS011;10891;49.350;19.386;2023-04-06T05:44:33;12.05;;;6.85;;
21458;SDS011;10891;49.350;19.386;2023-04-06T05:47:00;14.70;;;6.97;;
21458;SDS011;10891;49.350;19.386;2023-04-06T05:49:27;19.90;;;8.85;;
21458;SDS011;10891;49.350;19.386;2023-04-06T05:51:54;14.90;;;8.55;;
21458;SDS011;10891;49.350;19.386;2023-04-06T05:54:21;19.27;;;7.97;;
21458;SDS011;10891;49.350;19.386;2023-04-06T05:56:48;15.18;;;7.88;;
21458;SDS011;10891;49.350;19.386;2023-04-06T05:59:17;14.90;;;7.15;;
21458;SDS011;10891;49.350;19.386;2023-04-06T06:01:44;11.65;;;6.75;;
21458;SDS011;10891;49.350;19.386;2023-04-06T06:04:11;6.28;;;4.20;;
21458;SDS011;10891;49.350;19.386;2023-04-06T06:06:38;10.73;;;5.95;;
21458;SDS011;10891;49.350;19.386;2023-04-06T06:09:05;13.10;;;5.18;;
21458;SDS011;10891;49.350;19.386;2023-04-06T06:11:32;14.20;;;7.28;;
21458;SDS011;10891;49.350;19.386;2023-04-06T06:13:59;8.05;;;4.30;;
21458;SDS011;10891;49.350;19.386;2023-04-06T06:16:27;50.92;;;21.73;;
21458;SDS011;10891;49.350;19.386;2023-04-06T06:18:54;10.23;;;5.53;;
21458;SDS011;10891;49.350;19.386;2023-04-06T06:21:21;8.13;;;5.72;;
21458;SDS011;10891;49.350;19.386;2023-04-06T06:23:48;13.02;;;7.00;;
21458;SDS011;10891;49.350;19.386;2023-04-06T06:26:15;11.02;;;6.00;;
21458;SDS011;10891;49.350;19.386;2023-04-06T06:28:42;16.88;;;9.80;;
21458;SDS011;10891;49.350;19.386;2023-04-06T06:31:09;10.32;;;5.28;;
21458;SDS011;10891;49.350;19.386;2023-04-06T06:33:38;14.98;;;7.65;;
21458;SDS011;10891;49.350;19.386;2023-04-06T06:36:06;23.38;;;6.72;;
21458;SDS011;10891;49.350;19.386;2023-04-06T06:38:33;14.65;;;7.45;;
21458;SDS011;10891;49.350;19.386;2023-04-06T06:41:00;7.00;;;4.55;;
21458;SDS011;10891;49.350;19.386;2023-04-06T06:43:27;14.60;;;7.07;;
21458;SDS011;10891;49.350;19.386;2023-04-06T06:45:54;8.57;;;5.32;;
21458;SDS011;10891;49.350;19.386;2023-04-06T06:48:21;10.50;;;5.00;;
21458;SDS011;10891;49.350;19.386;2023-04-06T06:50:49;8.68;;;5.15;;
21458;SDS011;10891;49.350;19.386;2023-04-06T06:53:16;18.50;;;6.93;;
21458;SDS011;10891;49.350;19.386;2023-04-06T06:55:43;8.45;;;5.03;;
21458;SDS011;10891;49.350;19.386;2023-04-06T06:58:10;11.50;;;6.25;;
21458;SDS011;10891;49.350;19.386;2023-04-06T07:00:37;17.52;;;8.27;;
21458;SDS011;10891;49.350;19.386;2023-04-06T07:03:04;9.80;;;5.07;;
21458;SDS011;10891;49.350;19.386;2023-04-06T07:05:31;10.10;;;6.40;;
21458;SDS011;10891;49.350;19.386;2023-04-06T07:08:00;8.75;;;5.32;;
21458;SDS011;10891;49.350;19.386;2023-04-06T07:10:27;9.32;;;5.60;;
21458;SDS011;10891;49.350;19.386;2023-04-06T07:12:54;11.70;;;6.15;;
21458;SDS011;10891;49.350;19.386;2023-04-06T07:15:21;15.13;;;7.47;;
21458;SDS011;10891;49.350;19.386;2023-04-06T07:17:48;15.05;;;7.13;;
21458;SDS011;10891;49.350;19.386;2023-04-06T07:20:15;15.23;;;6.00;;
21458;SDS011;10891;49.350;19.386;2023-04-06T07:22:42;9.30;;;4.32;;
21458;SDS011;10891;49.350;19.386;2023-04-06T07:25:12;13.70;;;5.82;;
21458;SDS011;10891;49.350;19.386;2023-04-06T07:27:39;14.52;;;6.10;;
21458;SDS011;10891;49.350;19.386;2023-04-06T07:30:07;14.88;;;6.85;;
21458;SDS011;10891;49.350;19.386;2023-04-06T07:32:35;16.85;;;10.07;;
21458;SDS011;10891;49.350;19.386;2023-04-06T07:35:03;14.45;;;7.90;;
21458;SDS011;10891;49.350;19.386;2023-04-06T07:37:32;12.25;;;5.18;;
21458;SDS011;10891;49.350;19.386;2023-04-06T07:39:59;53.90;;;20.52;;
21458;SDS011;10891;49.350;19.386;2023-04-06T07:42:27;23.70;;;11.02;;
21458;SDS011;10891;49.350;19.386;2023-04-06T07:44:54;40.88;;;16.20;;
21458;SDS011;10891;49.350;19.386;2023-04-06T07:47:23;39.58;;;19.23;;
21458;SDS011;10891;49.350;19.386;2023-04-06T07:49:50;28.08;;;13.57;;
21458;SDS011;10891;49.350;19.386;2023-04-06T07:52:17;41.75;;;19.52;;
21458;SDS011;10891;49.350;19.386;2023-04-06T07:54:44;29.00;;;14.43;;
21458;SDS011;10891;49.350;19.386;2023-04-06T07:57:11;35.33;;;15.50;;
21458;SDS011;10891;49.350;19.386;2023-04-06T07:59:40;28.98;;;10.20;;
21458;SDS011;10891;49.350;19.386;2023-04-06T08:02:07;18.33;;;8.07;;
21458;SDS011;10891;49.350;19.386;2023-04-06T08:04:34;23.05;;;10.07;;
21458;SDS011;10891;49.350;19.386;2023-04-06T08:07:02;18.00;;;9.43;;
21458;SDS011;10891;49.350;19.386;2023-04-06T08:09:29;13.95;;;7.20;;
21458;SDS011;10891;49.350;19.386;2023-04-06T08:11:56;15.30;;;8.20;;
21458;SDS011;10891;49.350;19.386;2023-04-06T08:14:23;11.50;;;6.18;;
21458;SDS011;10891;49.350;19.386;2023-04-06T08:16:51;32.33;;;18.90;;
21458;SDS011;10891;49.350;19.386;2023-04-06T08:19:18;10.75;;;5.10;;
21458;SDS011;10891;49.350;19.386;2023-04-06T08:21:45;11.63;;;4.78;;
21458;SDS011;10891;49.350;19.386;2023-04-06T08:24:13;10.85;;;5.30;;
21458;SDS011;10891;49.350;19.386;2023-04-06T08:26:40;14.88;;;7.22;;
21458;SDS011;10891;49.350;19.386;2023-04-06T08:29:07;9.82;;;5.32;;
21458;SDS011;10891;49.350;19.386;2023-04-06T08:31:34;9.85;;;3.97;;
21458;SDS011;10891;49.350;19.386;2023-04-06T08:34:03;9.73;;;5.50;;
21458;SDS011;10891;49.350;19.386;2023-04-06T08:36:31;7.25;;;4.45;;
21458;SDS011;10891;49.350;19.386;2023-04-06T08:38:59;12.23;;;5.90;;
21458;SDS011;10891;49.350;19.386;2023-04-06T08:41:27;9.63;;;4.53;;
21458;SDS011;10891;49.350;19.386;2023-04-06T08:43:56;25.15;;;12.20;;
21458;SDS011;10891;49.350;19.386;2023-04-06T08:46:26;18.08;;;8.63;;
21458;SDS011;10891;49.350;19.386;2023-04-06T08:48:55;8.35;;;4.50;;
21458;SDS011;10891;49.350;19.386;2023-04-06T08:51:24;9.55;;;4.95;;
21458;SDS011;10891;49.350;19.386;2023-04-06T08:53:52;6.63;;;4.85;;
21458;SDS011;10891;49.350;19.386;2023-04-06T08:56:20;8.02;;;4.25;;
21458;SDS011;10891;49.350;19.386;2023-04-06T08:58:49;13.07;;;6.80;;
21458;SDS011;10891;49.350;19.386;2023-04-06T09:01:17;9.05;;;4.82;;
21458;SDS011;10891;49.350;19.386;2023-04-06T09:03:48;8.48;;;4.60;;
21458;SDS011;10891;49.350;19.386;2023-04-06T09:06:16;5.82;;;2.63;;
21458;SDS011;10891;49.350;19.386;2023-04-06T09:08:45;6.45;;;3.00;;
21458;SDS011;10891;49.350;19.386;2023-04-06T09:11:13;10.45;;;4.60;;
21458;SDS011;10891;49.350;19.386;2023-04-06T09:13:44;12.35;;;6.63;;
21458;SDS011;10891;49.350;19.386;2023-04-06T09:16:12;13.57;;;6.65;;
21458;SDS011;10891;49.350;19.386;2023-04-06T09:18:39;11.32;;;7.15;;
21458;SDS011;10891;49.350;19.386;2023-04-06T09:21:06;10.63;;;5.85;;
21458;SDS011;10891;49.350;19.386;2023-04-06T09:23:34;10.15;;;5.32;;
21458;SDS011;10891;49.350;19.386;2023-04-06T09:26:06;7.47;;;5.20;;
21458;SDS011;10891;49.350;19.386;2023-04-06T09:28:45;10.65;;;5.18;;
21458;SDS011;10891;49.350;19.386;2023-04-06T09:31:14;7.40;;;4.13;;
21458;SDS011;10891;49.350;19.386;2023-04-06T09:33:44;8.65;;;5.28;;
21458;SDS011;10891;49.350;19.386;2023-04-06T09:36:12;4.55;;;3.53;;
21458;SDS011;10891;49.350;19.386;2023-04-06T09:38:51;11.27;;;6.13;;
21458;SDS011;10891;49.350;19.386;2023-04-06T09:41:25;10.25;;;4.43;;
21458;SDS011;10891;49.350;19.386;2023-04-06T09:44:01;8.57;;;4.20;;
21458;SDS011;10891;49.350;19.386;2023-04-06T09:46:30;10.30;;;6.03;;
21458;SDS011;10891;49.350;19.386;2023-04-06T09:48:59;16.45;;;9.10;;
21458;SDS011;10891;49.350;19.386;2023-04-06T09:51:28;18.77;;;7.40;;
21458;SDS011;10891;49.350;19.386;2023-04-06T09:53:57;8.48;;;5.03;;
21458;SDS011;10891;49.350;19.386;2023-04-06T09:56:30;19.05;;;10.77;;
21458;SDS011;10891;49.350;19.386;2023-04-06T09:59:05;18.90;;;8.57;;
21458;SDS011;10891;49.350;19.386;2023-04-06T10:01:37;27.20;;;10.52;;
21458;SDS011;10891;49.350;19.386;2023-04-06T10:04:16;22.08;;;10.77;;
21458;SDS011;10891;49.350;19.386;2023-04-06T10:06:56;17.65;;;8.40;;
21458;SDS011;10891;49.350;19.386;2023-04-06T10:09:24;16.55;;;9.25;;
21458;SDS011;10891;49.350;19.386;2023-04-06T10:11:56;20.40;;;8.48;;
21458;SDS011;10891;49.350;19.386;2023-04-06T10:14:24;16.60;;;8.45;;
21458;SDS011;10891;49.350;19.386;2023-04-06T10:16:51;11.48;;;5.55;;
21458;SDS011;10891;49.350;19.386;2023-04-06T10:19:20;28.55;;;8.07;;
21458;SDS011;10891;49.350;19.386;2023-04-06T10:21:55;10.25;;;6.22;;
21458;SDS011;10891;49.350;19.386;2023-04-06T10:24:26;13.60;;;6.90;;
21458;SDS011;10891;49.350;19.386;2023-04-06T10:26:58;137.57;;;53.03;;
21458;SDS011;10891;49.350;19.386;2023-04-06T10:29:28;19.95;;;10.05;;
21458;SDS011;10891;49.350;19.386;2023-04-06T10:32:08;27.13;;;15.15;;
21458;SDS011;10891;49.350;19.386;2023-04-06T10:34:35;28.25;;;16.45;;
21458;SDS011;10891;49.350;19.386;2023-04-06T10:37:10;21.88;;;12.60;;
21458;SDS011;10891;49.350;19.386;2023-04-06T10:39:49;19.88;;;13.35;;
21458;SDS011;10891;49.350;19.386;2023-04-06T10:42:25;17.75;;;12.85;;
21458;SDS011;10891;49.350;19.386;2023-04-06T10:45:04;14.32;;;7.20;;
21458;SDS011;10891;49.350;19.386;2023-04-06T10:47:38;13.75;;;6.97;;
21458;SDS011;10891;49.350;19.386;2023-04-06T10:50:06;10.10;;;4.30;;
21458;SDS011;10891;49.350;19.386;2023-04-06T10:52:34;11.15;;;6.82;;
21458;SDS011;10891;49.350;19.386;2023-04-06T10:55:01;8.93;;;4.80;;
21458;SDS011;10891;49.350;19.386;2023-04-06T10:57:29;18.00;;;9.05;;
21458;SDS011;10891;49.350;19.386;2023-04-06T10:59:57;19.73;;;8.30;;
21458;SDS011;10891;49.350;19.386;2023-04-06T11:02:24;23.35;;;11.25;;
21458;SDS011;10891;49.350;19.386;2023-04-06T11:04:56;7.63;;;4.30;;
21458;SDS011;10891;49.350;19.386;2023-04-06T11:07:23;15.35;;;8.27;;
21458;SDS011;10891;49.350;19.386;2023-04-06T11:09:50;16.88;;;9.05;;
21458;SDS011;10891;49.350;19.386;2023-04-06T11:12:21;13.15;;;7.00;;
21458;SDS011;10891;49.350;19.386;2023-04-06T11:14:54;18.33;;;9.02;;
21458;SDS011;10891;49.350;19.386;2023-04-06T11:17:27;13.57;;;9.50;;
21458;SDS011;10891;49.350;19.386;2023-04-06T11:19:54;21.38;;;11.40;;
21458;SDS011;10891;49.350;19.386;2023-04-06T11:22:25;16.75;;;9.27;;
21458;SDS011;10891;49.350;19.386;2023-04-06T11:25:03;13.18;;;8.23;;
21458;SDS011;10891;49.350;19.386;2023-04-06T11:27:32;21.42;;;10.90;;
21458;SDS011;10891;49.350;19.386;2023-04-06T11:30:02;92.22;;;34.47;;
21458;SDS011;10891;49.350;19.386;2023-04-06T11:32:38;107.10;;;40.38;;
21458;SDS011;10891;49.350;19.386;2023-04-06T11:35:06;27.23;;;14.00;;
21458;SDS011;10891;49.350;19.386;2023-04-06T11:37:34;44.03;;;20.27;;
21458;SDS011;10891;49.350;19.386;2023-04-06T11:40:01;33.33;;;16.33;;
21458;SDS011;10891;49.350;19.386;2023-04-06T11:42:28;22.88;;;12.00;;
21458;SDS011;10891;49.350;19.386;2023-04-06T11:44:56;58.55;;;34.78;;
21458;SDS011;10891;49.350;19.386;2023-04-06T11:47:28;25.55;;;14.68;;
21458;SDS011;10891;49.350;19.386;2023-04-06T11:50:04;42.58;;;21.45;;
21458;SDS011;10891;49.350;19.386;2023-04-06T11:52:33;22.83;;;12.20;;
21458;SDS011;10891;49.350;19.386;2023-04-06T11:55:09;38.53;;;18.60;;
21458;SDS011;10891;49.350;19.386;2023-04-06T11:57:38;160.90;;;80.43;;
21458;SDS011;10891;49.350;19.386;2023-04-06T12:00:06;72.47;;;34.13;;
21458;SDS011;10891;49.350;19.386;2023-04-06T12:02:35;71.20;;;34.95;;
21458;SDS011;10891;49.350;19.386;2023-04-06T12:05:03;84.78;;;43.75;;
21458;SDS011;10891;49.350;19.386;2023-04-06T12:07:31;74.90;;;39.17;;
21458;SDS011;10891;49.350;19.386;2023-04-06T12:09:58;25.27;;;12.48;;
21458;SDS011;10891;49.350;19.386;2023-04-06T12:12:27;45.05;;;26.42;;
21458;SDS011;10891;49.350;19.386;2023-04-06T12:14:55;57.63;;;30.50;;
21458;SDS011;10891;49.350;19.386;2023-04-06T12:17:22;75.47;;;40.65;;
21458;SDS011;10891;49.350;19.386;2023-04-06T12:19:51;21.65;;;12.10;;
21458;SDS011;10891;49.350;19.386;2023-04-06T12:22:18;39.08;;;20.52;;
21458;SDS011;10891;49.350;19.386;2023-04-06T12:24:45;57.58;;;32.00;;
21458;SDS011;10891;49.350;19.386;2023-04-06T12:27:12;27.50;;;14.43;;
21458;SDS011;10891;49.350;19.386;2023-04-06T12:29:39;34.25;;;18.45;;
21458;SDS011;10891;49.350;19.386;2023-04-06T12:32:06;33.53;;;20.02;;
21458;SDS011;10891;49.350;19.386;2023-04-06T12:34:34;27.30;;;14.77;;
21458;SDS011;10891;49.350;19.386;2023-04-06T12:37:02;30.17;;;15.73;;
21458;SDS011;10891;49.350;19.386;2023-04-06T12:39:30;37.53;;;17.98;;
21458;SDS011;10891;49.350;19.386;2023-04-06T12:41:57;40.03;;;18.90;;
21458;SDS011;10891;49.350;19.386;2023-04-06T12:44:24;38.55;;;18.25;;
21458;SDS011;10891;49.350;19.386;2023-04-06T12:46:51;34.75;;;16.27;;
21458;SDS011;10891;49.350;19.386;2023-04-06T12:49:18;28.67;;;13.38;;
21458;SDS011;10891;49.350;19.386;2023-04-06T12:51:48;38.97;;;20.10;;
21458;SDS011;10891;49.350;19.386;2023-04-06T12:54:16;34.97;;;16.52;;
21458;SDS011;10891;49.350;19.386;2023-04-06T12:56:45;32.35;;;18.58;;
21458;SDS011;10891;49.350;19.386;2023-04-06T12:59:12;30.52;;;15.80;;
21458;SDS011;10891;49.350;19.386;2023-04-06T13:01:39;33.55;;;17.35;;
21458;SDS011;10891;49.350;19.386;2023-04-06T13:04:07;37.05;;;19.95;;
21458;SDS011;10891;49.350;19.386;2023-04-06T13:06:34;25.52;;;13.07;;
21458;SDS011;10891;49.350;19.386;2023-04-06T13:09:01;27.00;;;15.77;;
21458;SDS011;10891;49.350;19.386;2023-04-06T13:11:31;18.15;;;9.98;;
21458;SDS011;10891;49.350;19.386;2023-04-06T13:13:58;31.95;;;18.30;;
21458;SDS011;10891;49.350;19.386;2023-04-06T13:16:25;36.05;;;15.38;;
21458;SDS011;10891;49.350;19.386;2023-04-06T13:18:52;28.60;;;14.20;;
21458;SDS011;10891;49.350;19.386;2023-04-06T13:21:20;38.83;;;18.48;;
21458;SDS011;10891;49.350;19.386;2023-04-06T13:23:47;28.83;;;13.60;;
21458;SDS011;10891;49.350;19.386;2023-04-06T13:26:14;24.33;;;13.32;;
21458;SDS011;10891;49.350;19.386;2023-04-06T13:28:43;33.60;;;16.10;;
21458;SDS011;10891;49.350;19.386;2023-04-06T13:31:10;38.22;;;19.13;;
21458;SDS011;10891;49.350;19.386;2023-04-06T13:33:38;42.85;;;20.27;;
21458;SDS011;10891;49.350;19.386;2023-04-06T13:36:06;43.97;;;25.88;;
21458;SDS011;10891;49.350;19.386;2023-04-06T13:38:33;63.92;;;31.17;;
21458;SDS011;10891;49.350;19.386;2023-04-06T13:41:00;57.20;;;28.95;;
21458;SDS011;10891;49.350;19.386;2023-04-06T13:43:28;30.40;;;17.95;;
21458;SDS011;10891;49.350;19.386;2023-04-06T13:45:56;28.40;;;14.50;;
21458;SDS011;10891;49.350;19.386;2023-04-06T13:48:26;27.45;;;14.95;;
21458;SDS011;10891;49.350;19.386;2023-04-06T13:50:53;36.10;;;16.63;;
21458;SDS011;10891;49.350;19.386;2023-04-06T13:53:20;29.48;;;13.52;;
21458;SDS011;10891;49.350;19.386;2023-04-06T13:55:52;38.50;;;20.20;;
21458;SDS011;10891;49.350;19.386;2023-04-06T13:58:19;29.58;;;15.82;;
21458;SDS011;10891;49.350;19.386;2023-04-06T14:00:46;28.95;;;13.45;;
21458;SDS011;10891;49.350;19.386;2023-04-06T14:03:15;37.35;;;19.20;;
21458;SDS011;10891;49.350;19.386;2023-04-06T14:05:42;32.00;;;17.13;;
21458;SDS011;10891;49.350;19.386;2023-04-06T14:08:08;85.63;;;35.03;;
21458;SDS011;10891;49.350;19.386;2023-04-06T14:10:39;43.15;;;21.38;;
21458;SDS011;10891;49.350;19.386;2023-04-06T14:13:07;59.05;;;27.38;;
21458;SDS011;10891;49.350;19.386;2023-04-06T14:15:34;48.47;;;24.42;;
21458;SDS011;10891;49.350;19.386;2023-04-06T14:18:01;45.22;;;22.48;;